sensor_id;sensor_type;location;lat;lon;timestamp;P1;durP1;ratioP1;P2;durP2;ratioP2
10884;SDS011;5495;53.252;10.390;2022-08-30T00:02:20;1.13;;;0.80;;
10884;SDS011;5495;53.252;10.390;2022-08-30T00:05:00;4.47;;;0.97;;
10884;SDS011;5495;53.252;10.390;2022-08-30T00:07:37;0.80;;;0.70;;
10884;SDS011;5495;53.252;10.390;2022-08-30T00:10:14;1.00;;;0.60;;
10884;SDS011;5495;53.252;10.390;2022-08-30T00:12:51;0.90;;;0.60;;
10884;SDS011;5495;53.252;10.390;2022-08-30T00:15:24;0.60;;;0.60;;
10884;SDS011;5495;53.252;10.390;2022-08-30T00:17:59;1.50;;;0.90;;
10884;SDS011;5495;53.252;10.390;2022-08-30T00:20:28;0.90;;;0.80;;
10884;SDS011;5495;53.252;10.390;2022-08-30T00:26:41;1.10;;;0.93;;
10884;SDS011;5495;53.252;10.390;2022-08-30T00:29:09;0.93;;;0.70;;
10884;SDS011;5495;53.252;10.390;2022-08-30T00:31:45;0.80;;;0.50;;
10884;SDS011;5495;53.252;10.390;2022-08-30T00:34:13;1.80;;;0.90;;
10884;SDS011;5495;53.252;10.390;2022-08-30T00:36:41;1.83;;;0.90;;
10884;SDS011;5495;53.252;10.390;2022-08-30T00:39:11;0.80;;;0.53;;
10884;SDS011;5495;53.252;10.390;2022-08-30T00:41:39;4.00;;;0.80;;
10884;SDS011;5495;53.252;10.390;2022-08-30T00:44:12;1.43;;;0.80;;
10884;SDS011;5495;53.252;10.390;2022-08-30T00:46:39;1.23;;;0.93;;
10884;SDS011;5495;53.252;10.390;2022-08-30T00:49:11;1.93;;;0.80;;
10884;SDS011;5495;53.252;10.390;2022-08-30T00:51:40;3.13;;;1.33;;
10884;SDS011;5495;53.252;10.390;2022-08-30T00:54:08;2.07;;;0.90;;
10884;SDS011;5495;53.252;10.390;2022-08-30T00:56:36;1.33;;;0.83;;
10884;SDS011;5495;53.252;10.390;2022-08-30T00:59:07;2.20;;;1.10;;
10884;SDS011;5495;53.252;10.390;2022-08-30T01:01:38;1.10;;;0.80;;
10884;SDS011;5495;53.252;10.390;2022-08-30T01:04:08;1.07;;;0.93;;
10884;SDS011;5495;53.252;10.390;2022-08-30T01:06:38;1.43;;;0.80;;
10884;SDS011;5495;53.252;10.390;2022-08-30T01:09:06;1.27;;;0.90;;
10884;SDS011;5495;53.252;10.390;2022-08-30T01:11:35;4.20;;;0.80;;
10884;SDS011;5495;53.252;10.390;2022-08-30T01:14:03;1.37;;;1.00;;
10884;SDS011;5495;53.252;10.390;2022-08-30T01:16:32;2.20;;;0.70;;
10884;SDS011;5495;53.252;10.390;2022-08-30T01:19:02;2.80;;;0.90;;
10884;SDS011;5495;53.252;10.390;2022-08-30T01:21:41;1.80;;;1.00;;
10884;SDS011;5495;53.252;10.390;2022-08-30T01:24:15;2.13;;;0.80;;
10884;SDS011;5495;53.252;10.390;2022-08-30T01:26:44;7.83;;;0.80;;
10884;SDS011;5495;53.252;10.390;2022-08-30T01:29:14;0.87;;;0.87;;
10884;SDS011;5495;53.252;10.390;2022-08-30T01:31:47;2.20;;;0.70;;
10884;SDS011;5495;53.252;10.390;2022-08-30T01:34:20;1.37;;;0.80;;
10884;SDS011;5495;53.252;10.390;2022-08-30T01:36:47;2.10;;;1.00;;
10884;SDS011;5495;53.252;10.390;2022-08-30T01:39:16;0.87;;;0.63;;
10884;SDS011;5495;53.252;10.390;2022-08-30T01:41:45;0.90;;;0.70;;
10884;SDS011;5495;53.252;10.390;2022-08-30T01:44:13;1.10;;;0.60;;
10884;SDS011;5495;53.252;10.390;2022-08-30T01:46:44;1.00;;;0.90;;
10884;SDS011;5495;53.252;10.390;2022-08-30T01:49:13;1.00;;;0.70;;
10884;SDS011;5495;53.252;10.390;2022-08-30T01:51:43;0.80;;;0.70;;
10884;SDS011;5495;53.252;10.390;2022-08-30T01:54:11;1.47;;;0.87;;
10884;SDS011;5495;53.252;10.390;2022-08-30T01:56:42;3.70;;;1.00;;
10884;SDS011;5495;53.252;10.390;2022-08-30T01:59:10;0.70;;;0.60;;
10884;SDS011;5495;53.252;10.390;2022-08-30T02:01:37;1.50;;;0.90;;
10884;SDS011;5495;53.252;10.390;2022-08-30T02:04:08;0.60;;;0.60;;
10884;SDS011;5495;53.252;10.390;2022-08-30T02:06:39;1.47;;;1.00;;
10884;SDS011;5495;53.252;10.390;2022-08-30T02:09:20;0.87;;;0.70;;
10884;SDS011;5495;53.252;10.390;2022-08-30T02:11:49;0.87;;;0.70;;
10884;SDS011;5495;53.252;10.390;2022-08-30T02:14:17;2.80;;;0.93;;
10884;SDS011;5495;53.252;10.390;2022-08-30T02:16:45;2.53;;;0.70;;
10884;SDS011;5495;53.252;10.390;2022-08-30T02:19:14;1.07;;;0.83;;
10884;SDS011;5495;53.252;10.390;2022-08-30T02:21:44;0.93;;;0.80;;
10884;SDS011;5495;53.252;10.390;2022-08-30T02:24:12;0.57;;;0.57;;
10884;SDS011;5495;53.252;10.390;2022-08-30T02:26:42;1.00;;;0.87;;
10884;SDS011;5495;53.252;10.390;2022-08-30T02:29:13;5.70;;;1.47;;
10884;SDS011;5495;53.252;10.390;2022-08-30T02:31:41;3.43;;;1.20;;
10884;SDS011;5495;53.252;10.390;2022-08-30T02:34:08;1.43;;;1.10;;
10884;SDS011;5495;53.252;10.390;2022-08-30T02:36:36;4.23;;;1.47;;
10884;SDS011;5495;53.252;10.390;2022-08-30T02:39:10;2.97;;;1.53;;
10884;SDS011;5495;53.252;10.390;2022-08-30T02:41:38;3.83;;;1.37;;
10884;SDS011;5495;53.252;10.390;2022-08-30T02:44:07;4.17;;;1.73;;
10884;SDS011;5495;53.252;10.390;2022-08-30T02:46:41;3.10;;;1.60;;
10884;SDS011;5495;53.252;10.390;2022-08-30T02:49:20;3.07;;;1.50;;
10884;SDS011;5495;53.252;10.390;2022-08-30T02:51:55;2.27;;;1.70;;
10884;SDS011;5495;53.252;10.390;2022-08-30T02:54:26;3.63;;;1.47;;
10884;SDS011;5495;53.252;10.390;2022-08-30T02:56:56;4.17;;;1.30;;
10884;SDS011;5495;53.252;10.390;2022-08-30T02:59:29;3.67;;;1.47;;
10884;SDS011;5495;53.252;10.390;2022-08-30T03:01:59;3.83;;;1.80;;
10884;SDS011;5495;53.252;10.390;2022-08-30T03:04:28;3.70;;;1.50;;
10884;SDS011;5495;53.252;10.390;2022-08-30T03:06:57;3.23;;;1.40;;
10884;SDS011;5495;53.252;10.390;2022-08-30T03:09:25;5.00;;;1.20;;
10884;SDS011;5495;53.252;10.390;2022-08-30T03:11:53;5.33;;;1.60;;
10884;SDS011;5495;53.252;10.390;2022-08-30T03:14:21;3.53;;;1.50;;
10884;SDS011;5495;53.252;10.390;2022-08-30T03:16:48;1.80;;;1.30;;
10884;SDS011;5495;53.252;10.390;2022-08-30T03:19:29;1.47;;;0.90;;
10884;SDS011;5495;53.252;10.390;2022-08-30T03:22:00;2.00;;;1.30;;
10884;SDS011;5495;53.252;10.390;2022-08-30T03:24:28;1.93;;;1.40;;
10884;SDS011;5495;53.252;10.390;2022-08-30T03:26:56;2.10;;;1.00;;
10884;SDS011;5495;53.252;10.390;2022-08-30T03:29:24;2.70;;;1.30;;
10884;SDS011;5495;53.252;10.390;2022-08-30T03:31:51;2.63;;;1.37;;
10884;SDS011;5495;53.252;10.390;2022-08-30T03:34:19;1.20;;;1.10;;
10884;SDS011;5495;53.252;10.390;2022-08-30T03:36:49;1.30;;;1.00;;
10884;SDS011;5495;53.252;10.390;2022-08-30T03:39:17;4.90;;;1.50;;
10884;SDS011;5495;53.252;10.390;2022-08-30T03:41:47;4.47;;;1.40;;
10884;SDS011;5495;53.252;10.390;2022-08-30T03:44:19;1.50;;;1.23;;
10884;SDS011;5495;53.252;10.390;2022-08-30T03:46:47;2.53;;;1.40;;
10884;SDS011;5495;53.252;10.390;2022-08-30T03:49:15;8.37;;;1.10;;
10884;SDS011;5495;53.252;10.390;2022-08-30T03:51:43;1.97;;;1.10;;
10884;SDS011;5495;53.252;10.390;2022-08-30T03:54:13;2.23;;;1.00;;
10884;SDS011;5495;53.252;10.390;2022-08-30T03:56:42;2.57;;;1.17;;
10884;SDS011;5495;53.252;10.390;2022-08-30T03:59:13;1.57;;;1.00;;
10884;SDS011;5495;53.252;10.390;2022-08-30T04:01:41;2.27;;;1.10;;
10884;SDS011;5495;53.252;10.390;2022-08-30T04:04:09;3.10;;;1.30;;
10884;SDS011;5495;53.252;10.390;2022-08-30T04:06:37;2.57;;;1.43;;
10884;SDS011;5495;53.252;10.390;2022-08-30T04:09:05;2.00;;;1.40;;
10884;SDS011;5495;53.252;10.390;2022-08-30T04:11:34;3.17;;;1.53;;
10884;SDS011;5495;53.252;10.390;2022-08-30T04:14:02;1.47;;;1.10;;
10884;SDS011;5495;53.252;10.390;2022-08-30T04:16:30;1.43;;;1.00;;
10884;SDS011;5495;53.252;10.390;2022-08-30T04:18:59;2.13;;;1.40;;
10884;SDS011;5495;53.252;10.390;2022-08-30T04:21:27;1.80;;;1.20;;
10884;SDS011;5495;53.252;10.390;2022-08-30T04:23:55;1.83;;;1.40;;
10884;SDS011;5495;53.252;10.390;2022-08-30T04:26:26;2.50;;;1.60;;
10884;SDS011;5495;53.252;10.390;2022-08-30T04:28:55;3.80;;;1.23;;
10884;SDS011;5495;53.252;10.390;2022-08-30T04:31:23;2.70;;;1.30;;
10884;SDS011;5495;53.252;10.390;2022-08-30T04:33:53;3.30;;;1.50;;
10884;SDS011;5495;53.252;10.390;2022-08-30T04:36:21;1.53;;;1.20;;
10884;SDS011;5495;53.252;10.390;2022-08-30T04:38:49;5.63;;;1.67;;
10884;SDS011;5495;53.252;10.390;2022-08-30T04:41:17;3.77;;;1.40;;
10884;SDS011;5495;53.252;10.390;2022-08-30T04:43:48;4.00;;;1.40;;
10884;SDS011;5495;53.252;10.390;2022-08-30T04:46:20;4.57;;;1.33;;
10884;SDS011;5495;53.252;10.390;2022-08-30T04:48:48;3.50;;;1.60;;
10884;SDS011;5495;53.252;10.390;2022-08-30T04:51:16;7.57;;;1.53;;
10884;SDS011;5495;53.252;10.390;2022-08-30T04:53:44;5.83;;;1.30;;
10884;SDS011;5495;53.252;10.390;2022-08-30T04:56:12;2.73;;;1.50;;
10884;SDS011;5495;53.252;10.390;2022-08-30T04:58:41;3.73;;;1.27;;
10884;SDS011;5495;53.252;10.390;2022-08-30T05:01:11;4.83;;;1.43;;
10884;SDS011;5495;53.252;10.390;2022-08-30T05:03:42;3.83;;;1.30;;
10884;SDS011;5495;53.252;10.390;2022-08-30T05:06:12;1.67;;;1.40;;
10884;SDS011;5495;53.252;10.390;2022-08-30T05:08:44;1.50;;;1.20;;
10884;SDS011;5495;53.252;10.390;2022-08-30T05:11:12;1.70;;;1.40;;
10884;SDS011;5495;53.252;10.390;2022-08-30T05:13:41;3.47;;;1.27;;
10884;SDS011;5495;53.252;10.390;2022-08-30T05:16:09;6.73;;;1.70;;
10884;SDS011;5495;53.252;10.390;2022-08-30T05:18:43;3.53;;;1.60;;
10884;SDS011;5495;53.252;10.390;2022-08-30T05:21:16;2.43;;;1.70;;
10884;SDS011;5495;53.252;10.390;2022-08-30T05:23:45;2.37;;;1.70;;
10884;SDS011;5495;53.252;10.390;2022-08-30T05:26:14;2.73;;;2.13;;
10884;SDS011;5495;53.252;10.390;2022-08-30T05:28:43;4.27;;;1.90;;
10884;SDS011;5495;53.252;10.390;2022-08-30T05:31:14;4.10;;;1.90;;
10884;SDS011;5495;53.252;10.390;2022-08-30T05:33:46;3.07;;;1.97;;
10884;SDS011;5495;53.252;10.390;2022-08-30T05:36:15;3.70;;;1.60;;
10884;SDS011;5495;53.252;10.390;2022-08-30T05:38:44;4.40;;;1.83;;
10884;SDS011;5495;53.252;10.390;2022-08-30T05:41:12;3.07;;;1.90;;
10884;SDS011;5495;53.252;10.390;2022-08-30T05:43:42;6.50;;;2.10;;
10884;SDS011;5495;53.252;10.390;2022-08-30T05:46:11;4.50;;;2.40;;
10884;SDS011;5495;53.252;10.390;2022-08-30T05:48:44;3.33;;;1.80;;
10884;SDS011;5495;53.252;10.390;2022-08-30T05:51:13;3.00;;;1.70;;
10884;SDS011;5495;53.252;10.390;2022-08-30T05:53:42;4.37;;;1.93;;
10884;SDS011;5495;53.252;10.390;2022-08-30T05:56:12;4.70;;;2.17;;
10884;SDS011;5495;53.252;10.390;2022-08-30T05:58:40;3.37;;;1.80;;
10884;SDS011;5495;53.252;10.390;2022-08-30T06:01:17;5.50;;;1.97;;
10884;SDS011;5495;53.252;10.390;2022-08-30T06:03:51;3.03;;;1.87;;
10884;SDS011;5495;53.252;10.390;2022-08-30T06:06:20;6.27;;;1.80;;
10884;SDS011;5495;53.252;10.390;2022-08-30T06:08:48;3.93;;;1.90;;
10884;SDS011;5495;53.252;10.390;2022-08-30T06:11:17;6.07;;;2.23;;
10884;SDS011;5495;53.252;10.390;2022-08-30T06:13:46;3.00;;;1.60;;
10884;SDS011;5495;53.252;10.390;2022-08-30T06:16:14;6.10;;;1.80;;
10884;SDS011;5495;53.252;10.390;2022-08-30T06:18:51;5.33;;;2.00;;
10884;SDS011;5495;53.252;10.390;2022-08-30T06:21:20;3.13;;;1.57;;
10884;SDS011;5495;53.252;10.390;2022-08-30T06:23:53;4.17;;;1.87;;
10884;SDS011;5495;53.252;10.390;2022-08-30T06:26:21;2.40;;;1.70;;
10884;SDS011;5495;53.252;10.390;2022-08-30T06:28:50;4.60;;;1.73;;
10884;SDS011;5495;53.252;10.390;2022-08-30T06:31:21;4.20;;;1.60;;
10884;SDS011;5495;53.252;10.390;2022-08-30T06:33:51;3.33;;;1.90;;
10884;SDS011;5495;53.252;10.390;2022-08-30T06:36:24;3.97;;;1.73;;
10884;SDS011;5495;53.252;10.390;2022-08-30T06:38:52;3.73;;;1.80;;
10884;SDS011;5495;53.252;10.390;2022-08-30T06:41:28;3.93;;;2.67;;
10884;SDS011;5495;53.252;10.390;2022-08-30T06:44:01;7.38;;;2.20;;
10884;SDS011;5495;53.252;10.390;2022-08-30T06:46:30;3.97;;;1.73;;
10884;SDS011;5495;53.252;10.390;2022-08-30T06:49:02;4.80;;;1.80;;
10884;SDS011;5495;53.252;10.390;2022-08-30T06:51:31;3.10;;;1.70;;
10884;SDS011;5495;53.252;10.390;2022-08-30T06:54:00;4.23;;;1.70;;
10884;SDS011;5495;53.252;10.390;2022-08-30T06:56:28;3.27;;;2.17;;
10884;SDS011;5495;53.252;10.390;2022-08-30T06:58:56;2.73;;;1.23;;
10884;SDS011;5495;53.252;10.390;2022-08-30T07:01:25;3.70;;;1.73;;
10884;SDS011;5495;53.252;10.390;2022-08-30T07:03:54;4.70;;;1.60;;
10884;SDS011;5495;53.252;10.390;2022-08-30T07:06:24;1.93;;;1.63;;
10884;SDS011;5495;53.252;10.390;2022-08-30T07:08:54;5.97;;;1.63;;
10884;SDS011;5495;53.252;10.390;2022-08-30T07:11:26;4.10;;;1.50;;
10884;SDS011;5495;53.252;10.390;2022-08-30T07:13:56;3.13;;;1.60;;
10884;SDS011;5495;53.252;10.390;2022-08-30T07:16:24;2.47;;;1.70;;
10884;SDS011;5495;53.252;10.390;2022-08-30T07:18:52;5.03;;;2.17;;
10884;SDS011;5495;53.252;10.390;2022-08-30T07:21:21;7.17;;;1.70;;
10884;SDS011;5495;53.252;10.390;2022-08-30T07:23:52;7.07;;;1.93;;
10884;SDS011;5495;53.252;10.390;2022-08-30T07:26:24;3.87;;;1.63;;
10884;SDS011;5495;53.252;10.390;2022-08-30T07:28:53;3.97;;;1.70;;
10884;SDS011;5495;53.252;10.390;2022-08-30T07:31:22;2.23;;;1.30;;
10884;SDS011;5495;53.252;10.390;2022-08-30T07:33:51;2.93;;;1.30;;
10884;SDS011;5495;53.252;10.390;2022-08-30T07:36:20;2.63;;;1.60;;
10884;SDS011;5495;53.252;10.390;2022-08-30T07:38:50;1.93;;;1.60;;
10884;SDS011;5495;53.252;10.390;2022-08-30T07:41:23;2.97;;;1.70;;
10884;SDS011;5495;53.252;10.390;2022-08-30T07:43:52;2.33;;;1.70;;
10884;SDS011;5495;53.252;10.390;2022-08-30T07:46:21;2.90;;;1.60;;
10884;SDS011;5495;53.252;10.390;2022-08-30T07:48:49;2.73;;;1.53;;
10884;SDS011;5495;53.252;10.390;2022-08-30T07:51:19;2.10;;;1.53;;
10884;SDS011;5495;53.252;10.390;2022-08-30T07:53:50;6.97;;;1.57;;
10884;SDS011;5495;53.252;10.390;2022-08-30T07:56:19;2.67;;;1.70;;
10884;SDS011;5495;53.252;10.390;2022-08-30T07:58:48;2.23;;;1.43;;
10884;SDS011;5495;53.252;10.390;2022-08-30T08:01:16;3.10;;;1.70;;
10884;SDS011;5495;53.252;10.390;2022-08-30T08:03:44;1.67;;;1.30;;
10884;SDS011;5495;53.252;10.390;2022-08-30T08:06:22;1.27;;;1.17;;
10884;SDS011;5495;53.252;10.390;2022-08-30T08:09:01;1.40;;;1.30;;
10884;SDS011;5495;53.252;10.390;2022-08-30T08:11:32;1.90;;;1.30;;
10884;SDS011;5495;53.252;10.390;2022-08-30T08:14:01;1.07;;;0.90;;
10884;SDS011;5495;53.252;10.390;2022-08-30T08:16:30;1.67;;;1.17;;
10884;SDS011;5495;53.252;10.390;2022-08-30T08:18:59;1.30;;;1.00;;
10884;SDS011;5495;53.252;10.390;2022-08-30T08:21:28;2.03;;;1.10;;
10884;SDS011;5495;53.252;10.390;2022-08-30T08:23:56;1.10;;;0.90;;
10884;SDS011;5495;53.252;10.390;2022-08-30T08:26:25;1.30;;;0.80;;
10884;SDS011;5495;53.252;10.390;2022-08-30T08:28:53;2.60;;;0.90;;
10884;SDS011;5495;53.252;10.390;2022-08-30T08:31:24;1.03;;;0.70;;
10884;SDS011;5495;53.252;10.390;2022-08-30T08:33:53;1.17;;;1.00;;
10884;SDS011;5495;53.252;10.390;2022-08-30T08:36:23;1.20;;;1.10;;
10884;SDS011;5495;53.252;10.390;2022-08-30T08:38:50;2.67;;;1.00;;
10884;SDS011;5495;53.252;10.390;2022-08-30T08:41:22;1.00;;;0.90;;
10884;SDS011;5495;53.252;10.390;2022-08-30T08:43:57;2.03;;;0.90;;
10884;SDS011;5495;53.252;10.390;2022-08-30T08:46:27;1.33;;;0.97;;
10884;SDS011;5495;53.252;10.390;2022-08-30T08:49:02;1.37;;;1.00;;
10884;SDS011;5495;53.252;10.390;2022-08-30T08:51:32;4.93;;;0.87;;
10884;SDS011;5495;53.252;10.390;2022-08-30T08:54:20;1.87;;;1.10;;
10884;SDS011;5495;53.252;10.390;2022-08-30T08:56:52;2.60;;;1.00;;
10884;SDS011;5495;53.252;10.390;2022-08-30T08:59:20;0.93;;;0.87;;
10884;SDS011;5495;53.252;10.390;2022-08-30T09:01:48;2.37;;;0.80;;
10884;SDS011;5495;53.252;10.390;2022-08-30T09:04:18;0.70;;;0.70;;
10884;SDS011;5495;53.252;10.390;2022-08-30T09:06:51;0.80;;;0.80;;
10884;SDS011;5495;53.252;10.390;2022-08-30T09:09:24;1.30;;;1.00;;
10884;SDS011;5495;53.252;10.390;2022-08-30T09:11:56;3.90;;;0.90;;
10884;SDS011;5495;53.252;10.390;2022-08-30T09:14:25;1.17;;;1.00;;
10884;SDS011;5495;53.252;10.390;2022-08-30T09:16:57;1.80;;;0.90;;
10884;SDS011;5495;53.252;10.390;2022-08-30T09:19:27;1.77;;;0.80;;
10884;SDS011;5495;53.252;10.390;2022-08-30T09:22:00;2.67;;;0.77;;
10884;SDS011;5495;53.252;10.390;2022-08-30T09:24:40;1.03;;;0.80;;
10884;SDS011;5495;53.252;10.390;2022-08-30T09:27:15;2.03;;;0.90;;
10884;SDS011;5495;53.252;10.390;2022-08-30T09:29:57;1.20;;;0.80;;
10884;SDS011;5495;53.252;10.390;2022-08-30T09:32:31;0.90;;;0.70;;
10884;SDS011;5495;53.252;10.390;2022-08-30T09:35:02;1.00;;;0.83;;
10884;SDS011;5495;53.252;10.390;2022-08-30T09:37:37;0.80;;;0.70;;
10884;SDS011;5495;53.252;10.390;2022-08-30T09:40:12;1.90;;;0.83;;
10884;SDS011;5495;53.252;10.390;2022-08-30T09:42:49;0.80;;;0.70;;
10884;SDS011;5495;53.252;10.390;2022-08-30T09:45:31;1.13;;;0.80;;
10884;SDS011;5495;53.252;10.390;2022-08-30T09:48:00;1.27;;;0.73;;
10884;SDS011;5495;53.252;10.390;2022-08-30T09:50:46;2.27;;;0.67;;
10884;SDS011;5495;53.252;10.390;2022-08-30T09:53:19;1.00;;;0.77;;
10884;SDS011;5495;53.252;10.390;2022-08-30T09:55:54;0.87;;;0.60;;
10884;SDS011;5495;53.252;10.390;2022-08-30T09:58:32;0.40;;;0.40;;
10884;SDS011;5495;53.252;10.390;2022-08-30T10:01:08;1.90;;;0.70;;
10884;SDS011;5495;53.252;10.390;2022-08-30T10:03:48;0.90;;;0.70;;
10884;SDS011;5495;53.252;10.390;2022-08-30T10:06:21;0.60;;;0.50;;
10884;SDS011;5495;53.252;10.390;2022-08-30T10:08:58;0.63;;;0.63;;
10884;SDS011;5495;53.252;10.390;2022-08-30T10:11:32;0.70;;;0.60;;
10884;SDS011;5495;53.252;10.390;2022-08-30T10:14:19;1.07;;;0.70;;
10884;SDS011;5495;53.252;10.390;2022-08-30T10:17:02;0.80;;;0.80;;
10884;SDS011;5495;53.252;10.390;2022-08-30T10:19:40;2.00;;;0.67;;
10884;SDS011;5495;53.252;10.390;2022-08-30T10:22:18;2.10;;;0.80;;
10884;SDS011;5495;53.252;10.390;2022-08-30T10:24:52;1.17;;;0.67;;
10884;SDS011;5495;53.252;10.390;2022-08-30T10:27:24;1.17;;;0.60;;
10884;SDS011;5495;53.252;10.390;2022-08-30T10:29:58;0.57;;;0.53;;
10884;SDS011;5495;53.252;10.390;2022-08-30T10:32:32;0.50;;;0.50;;
10884;SDS011;5495;53.252;10.390;2022-08-30T10:35:05;0.67;;;0.67;;
10884;SDS011;5495;53.252;10.390;2022-08-30T10:37:35;0.70;;;0.60;;
10884;SDS011;5495;53.252;10.390;2022-08-30T10:40:09;0.90;;;0.60;;
10884;SDS011;5495;53.252;10.390;2022-08-30T10:42:59;1.03;;;0.70;;
10884;SDS011;5495;53.252;10.390;2022-08-30T10:45:37;1.53;;;0.50;;
10884;SDS011;5495;53.252;10.390;2022-08-30T10:48:10;1.43;;;0.70;;
10884;SDS011;5495;53.252;10.390;2022-08-30T10:50:45;0.63;;;0.43;;
10884;SDS011;5495;53.252;10.390;2022-08-30T10:53:18;1.43;;;0.80;;
10884;SDS011;5495;53.252;10.390;2022-08-30T10:55:52;0.50;;;0.50;;
10884;SDS011;5495;53.252;10.390;2022-08-30T10:58:29;0.60;;;0.60;;
10884;SDS011;5495;53.252;10.390;2022-08-30T11:01:03;0.60;;;0.50;;
10884;SDS011;5495;53.252;10.390;2022-08-30T11:06:50;3.10;;;0.70;;
10884;SDS011;5495;53.252;10.390;2022-08-30T11:09:35;0.77;;;0.70;;
10884;SDS011;5495;53.252;10.390;2022-08-30T11:12:21;0.60;;;0.60;;
10884;SDS011;5495;53.252;10.390;2022-08-30T11:14:57;3.60;;;0.63;;
10884;SDS011;5495;53.252;10.390;2022-08-30T11:17:31;1.17;;;0.50;;
10884;SDS011;5495;53.252;10.390;2022-08-30T11:20:20;0.60;;;0.53;;
10884;SDS011;5495;53.252;10.390;2022-08-30T11:23:18;0.53;;;0.43;;
10884;SDS011;5495;53.252;10.390;2022-08-30T11:25:53;0.43;;;0.33;;
10884;SDS011;5495;53.252;10.390;2022-08-30T11:31:40;1.20;;;0.60;;
10884;SDS011;5495;53.252;10.390;2022-08-30T11:34:13;2.60;;;0.60;;
10884;SDS011;5495;53.252;10.390;2022-08-30T11:37:33;1.00;;;0.50;;
10884;SDS011;5495;53.252;10.390;2022-08-30T11:40:04;0.40;;;0.40;;
10884;SDS011;5495;53.252;10.390;2022-08-30T11:42:36;0.70;;;0.50;;
10884;SDS011;5495;53.252;10.390;2022-08-30T11:54:31;3.30;;;0.80;;
10884;SDS011;5495;53.252;10.390;2022-08-30T11:57:05;0.77;;;0.50;;
10884;SDS011;5495;53.252;10.390;2022-08-30T11:59:46;0.70;;;0.70;;
10884;SDS011;5495;53.252;10.390;2022-08-30T12:02:49;0.60;;;0.60;;
10884;SDS011;5495;53.252;10.390;2022-08-30T12:14:34;0.60;;;0.57;;
10884;SDS011;5495;53.252;10.390;2022-08-30T12:17:25;0.70;;;0.53;;
10884;SDS011;5495;53.252;10.390;2022-08-30T12:20:17;0.73;;;0.60;;
10884;SDS011;5495;53.252;10.390;2022-08-30T12:22:47;1.50;;;0.57;;
10884;SDS011;5495;53.252;10.390;2022-08-30T12:25:19;1.13;;;0.83;;
10884;SDS011;5495;53.252;10.390;2022-08-30T12:28:06;0.80;;;0.60;;
10884;SDS011;5495;53.252;10.390;2022-08-30T12:30:38;0.73;;;0.70;;
10884;SDS011;5495;53.252;10.390;2022-08-30T12:33:08;1.90;;;1.13;;
10884;SDS011;5495;53.252;10.390;2022-08-30T12:35:38;1.20;;;0.70;;
10884;SDS011;5495;53.252;10.390;2022-08-30T12:38:12;0.83;;;0.60;;
10884;SDS011;5495;53.252;10.390;2022-08-30T12:40:50;0.73;;;0.50;;
10884;SDS011;5495;53.252;10.390;2022-08-30T12:43:24;0.87;;;0.63;;
10884;SDS011;5495;53.252;10.390;2022-08-30T12:45:54;0.60;;;0.50;;
10884;SDS011;5495;53.252;10.390;2022-08-30T12:48:25;0.77;;;0.60;;
10884;SDS011;5495;53.252;10.390;2022-08-30T12:50:55;1.90;;;0.80;;
10884;SDS011;5495;53.252;10.390;2022-08-30T12:53:26;0.80;;;0.70;;
10884;SDS011;5495;53.252;10.390;2022-08-30T12:55:58;0.50;;;0.50;;
10884;SDS011;5495;53.252;10.390;2022-08-30T12:58:37;1.00;;;0.70;;
10884;SDS011;5495;53.252;10.390;2022-08-30T13:01:23;0.60;;;0.53;;
10884;SDS011;5495;53.252;10.390;2022-08-30T13:03:58;0.60;;;0.60;;
10884;SDS011;5495;53.252;10.390;2022-08-30T13:06:38;1.00;;;0.60;;
10884;SDS011;5495;53.252;10.390;2022-08-30T13:09:10;0.67;;;0.67;;
10884;SDS011;5495;53.252;10.390;2022-08-30T13:11:52;1.07;;;0.90;;
10884;SDS011;5495;53.252;10.390;2022-08-30T13:14:32;1.60;;;1.10;;
10884;SDS011;5495;53.252;10.390;2022-08-30T13:17:05;2.00;;;0.90;;
10884;SDS011;5495;53.252;10.390;2022-08-30T13:19:36;6.40;;;1.67;;
10884;SDS011;5495;53.252;10.390;2022-08-30T13:24:52;1.33;;;0.90;;
10884;SDS011;5495;53.252;10.390;2022-08-30T13:27:22;2.73;;;0.80;;
10884;SDS011;5495;53.252;10.390;2022-08-30T13:29:50;1.40;;;0.83;;
10884;SDS011;5495;53.252;10.390;2022-08-30T13:32:18;1.10;;;1.00;;
10884;SDS011;5495;53.252;10.390;2022-08-30T13:34:46;1.03;;;0.97;;
10884;SDS011;5495;53.252;10.390;2022-08-30T13:37:14;1.13;;;1.00;;
10884;SDS011;5495;53.252;10.390;2022-08-30T13:39:46;1.20;;;0.87;;
10884;SDS011;5495;53.252;10.390;2022-08-30T13:42:14;1.23;;;0.90;;
10884;SDS011;5495;53.252;10.390;2022-08-30T13:44:43;1.43;;;0.80;;
10884;SDS011;5495;53.252;10.390;2022-08-30T13:47:10;1.13;;;0.83;;
10884;SDS011;5495;53.252;10.390;2022-08-30T13:49:40;3.07;;;1.10;;
10884;SDS011;5495;53.252;10.390;2022-08-30T13:52:11;0.70;;;0.70;;
10884;SDS011;5495;53.252;10.390;2022-08-30T13:54:41;1.00;;;0.90;;
10884;SDS011;5495;53.252;10.390;2022-08-30T13:57:11;2.27;;;0.90;;
10884;SDS011;5495;53.252;10.390;2022-08-30T13:59:40;1.67;;;0.70;;
10884;SDS011;5495;53.252;10.390;2022-08-30T14:02:09;2.07;;;0.90;;
10884;SDS011;5495;53.252;10.390;2022-08-30T14:04:37;1.53;;;0.80;;
10884;SDS011;5495;53.252;10.390;2022-08-30T14:07:07;1.00;;;0.90;;
10884;SDS011;5495;53.252;10.390;2022-08-30T14:09:35;1.47;;;1.00;;
10884;SDS011;5495;53.252;10.390;2022-08-30T14:12:03;4.73;;;1.17;;
10884;SDS011;5495;53.252;10.390;2022-08-30T14:14:31;1.10;;;0.80;;
10884;SDS011;5495;53.252;10.390;2022-08-30T14:16:59;1.40;;;0.80;;
10884;SDS011;5495;53.252;10.390;2022-08-30T14:19:28;3.20;;;0.80;;
10884;SDS011;5495;53.252;10.390;2022-08-30T14:21:56;1.30;;;0.90;;
10884;SDS011;5495;53.252;10.390;2022-08-30T14:24:24;0.90;;;0.80;;
10884;SDS011;5495;53.252;10.390;2022-08-30T14:26:52;1.27;;;0.70;;
10884;SDS011;5495;53.252;10.390;2022-08-30T14:29:20;0.63;;;0.63;;
10884;SDS011;5495;53.252;10.390;2022-08-30T14:31:52;1.67;;;0.83;;
10884;SDS011;5495;53.252;10.390;2022-08-30T14:34:26;1.00;;;0.70;;
10884;SDS011;5495;53.252;10.390;2022-08-30T14:36:57;0.97;;;0.83;;
10884;SDS011;5495;53.252;10.390;2022-08-30T14:39:24;2.13;;;0.83;;
10884;SDS011;5495;53.252;10.390;2022-08-30T14:41:53;1.07;;;0.70;;
10884;SDS011;5495;53.252;10.390;2022-08-30T14:44:21;1.70;;;1.00;;
10884;SDS011;5495;53.252;10.390;2022-08-30T14:46:52;0.70;;;0.60;;
10884;SDS011;5495;53.252;10.390;2022-08-30T14:49:21;3.63;;;0.90;;
10884;SDS011;5495;53.252;10.390;2022-08-30T14:51:51;1.07;;;0.80;;
10884;SDS011;5495;53.252;10.390;2022-08-30T14:54:20;0.73;;;0.70;;
10884;SDS011;5495;53.252;10.390;2022-08-30T14:56:49;2.03;;;0.80;;
10884;SDS011;5495;53.252;10.390;2022-08-30T14:59:17;0.80;;;0.70;;
10884;SDS011;5495;53.252;10.390;2022-08-30T15:01:44;1.13;;;0.60;;
10884;SDS011;5495;53.252;10.390;2022-08-30T15:04:16;0.90;;;0.70;;
10884;SDS011;5495;53.252;10.390;2022-08-30T15:06:45;2.73;;;1.10;;
10884;SDS011;5495;53.252;10.390;2022-08-30T15:09:16;2.50;;;0.90;;
10884;SDS011;5495;53.252;10.390;2022-08-30T15:11:49;0.60;;;0.60;;
10884;SDS011;5495;53.252;10.390;2022-08-30T15:14:17;3.50;;;1.37;;
10884;SDS011;5495;53.252;10.390;2022-08-30T15:16:45;1.40;;;1.03;;
10884;SDS011;5495;53.252;10.390;2022-08-30T15:19:13;1.20;;;0.70;;
10884;SDS011;5495;53.252;10.390;2022-08-30T15:21:41;1.23;;;0.70;;
10884;SDS011;5495;53.252;10.390;2022-08-30T15:24:11;1.53;;;0.80;;
10884;SDS011;5495;53.252;10.390;2022-08-30T15:26:45;1.63;;;0.80;;
10884;SDS011;5495;53.252;10.390;2022-08-30T15:29:14;2.00;;;0.70;;
10884;SDS011;5495;53.252;10.390;2022-08-30T15:31:44;1.23;;;0.80;;
10884;SDS011;5495;53.252;10.390;2022-08-30T15:34:16;3.53;;;0.77;;
10884;SDS011;5495;53.252;10.390;2022-08-30T15:36:46;1.53;;;0.90;;
10884;SDS011;5495;53.252;10.390;2022-08-30T15:39:14;3.33;;;0.90;;
10884;SDS011;5495;53.252;10.390;2022-08-30T15:41:44;2.47;;;1.00;;
10884;SDS011;5495;53.252;10.390;2022-08-30T15:44:14;1.13;;;0.73;;
10884;SDS011;5495;53.252;10.390;2022-08-30T15:46:44;1.77;;;0.67;;